HORACE LAKE: From 11/25/2018 02:00 to 01/24/2019 09:00

Date LAKE ELEVATION [FT] PRECIPITATION INCREMENT [IN] AIR TEMPERATURE [F] RELATIVE HUMIDITY [%] RELEASE [CFS]
01/24/2019 03:00 651.47 0.28 41.7 100.0 --
01/24/2019 02:00 651.44 0.20 41.7 91.0 --
01/24/2019 01:00 651.45 0.02 40.0 84.0 --
01/24/2019 00:00 651.46 0.00 34.8 95.0 --
01/23/2019 23:00 651.45 0.00 35.9 91.0 --
01/23/2019 22:00 651.45 0.00 35.9 91.0 --
01/23/2019 21:00 651.46 0.00 36.4 85.0 --
01/23/2019 20:00 651.45 0.01 36.3 76.0 --
01/23/2019 19:00 651.47 0.00 36.0 74.0 --
01/23/2019 18:00 651.47 0.00 36.1 71.0 --
01/23/2019 17:00 651.47 0.00 37.1 65.0 --
01/23/2019 16:00 651.46 0.00 36.7 55.0 --
01/23/2019 15:00 651.45 0.00 35.4 49.0 --
01/23/2019 14:00 651.46 0.00 33.2 48.0 --
01/23/2019 13:00 651.44 0.00 31.4 44.0 --
01/23/2019 12:00 651.44 0.00 31.4 44.0 --
01/23/2019 11:00 651.46 0.00 29.0 44.0 --
01/23/2019 10:00 651.47 0.00 26.2 42.0 --
01/23/2019 09:00 651.47 0.00 26.2 42.0 --
01/23/2019 08:00 651.47 0.00 24.9 45.0 --
01/23/2019 07:00 651.46 0.00 23.3 47.0 --
01/23/2019 06:00 651.47 0.00 22.0 41.0 --
01/23/2019 05:00 651.47 0.00 12.5 62.0 --
01/23/2019 04:00 651.46 0.00 10.6 61.0 --
01/23/2019 03:00 651.47 0.00 10.7 62.0 --
01/23/2019 02:00 651.47 0.00 11.1 61.0 --
01/23/2019 01:00 651.47 0.00 13.4 57.0 --
01/23/2019 00:00 651.47 0.00 14.3 49.0 --
01/22/2019 23:00 651.47 0.00 15.3 45.0 --
01/22/2019 22:00 651.48 0.00 13.8 50.0 --
01/22/2019 21:00 651.47 0.00 13.4 57.0 --
01/22/2019 20:00 651.47 0.00 11.0 57.0 --
01/22/2019 19:00 651.47 0.00 13.1 50.0 --
01/22/2019 18:00 651.47 0.00 17.9 31.0 --
01/22/2019 17:00 651.48 0.00 21.6 22.0 --
01/22/2019 16:00 651.48 0.00 21.6 22.0 --
01/22/2019 15:00 651.49 0.00 22.0 19.0 --
01/22/2019 14:00 651.50 0.00 18.2 20.0 --
01/22/2019 13:00 651.48 0.00 16.0 23.0 --
01/22/2019 12:00 651.50 0.00 13.6 25.0 --
01/22/2019 11:00 651.49 0.00 10.9 30.0 --
01/22/2019 10:00 651.50 0.00 6.4 39.0 --
01/22/2019 09:00 651.50 0.00 2.8 47.0 --
01/22/2019 08:00 651.51 0.00 2.9 47.0 --
01/22/2019 07:00 651.49 0.00 2.2 48.0 --
01/22/2019 06:00 651.52 0.02 1.8 48.0 --
01/22/2019 05:00 651.52 0.00 2.2 47.0 --
01/22/2019 04:00 651.49 0.00 2.4 45.0 --
01/22/2019 03:00 651.49 0.00 2.4 45.0 --
01/22/2019 02:00 651.48 0.00 2.3 46.0 --
01/22/2019 01:00 651.49 0.00 2.2 44.0 --
01/22/2019 00:00 651.53 0.00 1.7 45.0 --
01/21/2019 23:00 651.49 0.00 1.9 46.0 --
01/21/2019 22:00 651.48 0.00 1.2 56.0 --
01/21/2019 21:00 651.50 0.00 0.1 62.0 --
01/21/2019 20:00 651.50 0.00 0.0 65.0 --
01/21/2019 19:00 651.49 0.00 -0.2 63.0 --
01/21/2019 18:00 651.49 0.00 -0.4 66.0 --
01/21/2019 17:00 651.49 0.00 -0.4 66.0 --
01/21/2019 16:00 651.50 0.00 -0.4 59.0 --
01/21/2019 15:00 651.51 0.00 -0.8 52.0 --
01/21/2019 14:00 651.53 0.00 -0.9 53.0 --
01/21/2019 13:00 651.51 0.00 -2.4 50.0 --
01/21/2019 12:00 651.49 0.00 -2.9 50.0 --
01/21/2019 11:00 651.54 0.00 -3.2 54.0 --
01/21/2019 10:00 651.51 0.00 -3.2 53.0 --
01/21/2019 09:00 651.52 0.00 -2.8 54.0 --
01/21/2019 08:00 651.52 0.00 -2.3 56.0 --
01/21/2019 07:00 651.52 0.00 -2.3 56.0 --
01/21/2019 06:00 651.52 0.00 -2.3 54.0 --
01/21/2019 05:00 651.54 0.00 -1.4 57.0 --
01/21/2019 04:00 651.52 0.00 -0.6 56.0 --
01/21/2019 03:00 651.51 0.00 0.1 55.0 --
01/21/2019 02:00 651.51 0.00 0.5 54.0 --
01/21/2019 01:00 651.56 0.00 1.0 53.0 --
01/21/2019 00:00 651.54 0.00 1.2 56.0 --
01/20/2019 23:00 651.54 0.00 1.2 56.0 --
01/20/2019 22:00 651.56 0.01 2.4 57.0 --
01/20/2019 21:00 651.53 0.00 5.3 59.0 --
01/20/2019 20:00 651.53 0.00 11.1 65.0 --
01/20/2019 19:00 651.54 0.00 18.5 86.0 --
01/20/2019 18:00 651.54 0.00 19.4 91.0 --
01/20/2019 17:00 651.52 0.00 19.3 93.0 --
01/20/2019 16:00 651.52 0.00 19.3 93.0 --
01/20/2019 15:00 651.54 0.00 18.4 94.0 --
01/20/2019 14:00 651.52 0.00 13.5 93.0 --
01/20/2019 13:00 651.51 0.00 12.4 91.0 --
01/20/2019 12:00 651.51 0.00 11.7 90.0 --
01/20/2019 11:00 651.51 0.00 11.7 90.0 --
01/20/2019 10:00 651.52 0.00 10.5 90.0 --
01/20/2019 09:00 651.50 0.00 11.1 91.0 --
01/20/2019 08:00 651.50 0.00 11.4 91.0 --
01/20/2019 07:00 651.49 0.00 12.4 91.0 --
01/20/2019 06:00 651.49 0.00 12.2 91.0 --
01/20/2019 05:00 651.49 0.00 13.4 93.0 --
01/20/2019 04:00 651.49 0.00 13.4 93.0 --
01/20/2019 03:00 651.48 0.00 13.6 94.0 --
01/20/2019 02:00 651.47 0.00 14.1 92.0 --
01/20/2019 01:00 651.47 0.00 14.1 92.0 --
01/20/2019 00:00 651.47 0.00 15.3 91.0 --
01/19/2019 23:00 651.46 0.00 17.8 92.0 --
01/19/2019 22:00 651.46 0.00 20.7 91.0 --
01/19/2019 21:00 651.46 0.00 21.2 86.0 --
01/19/2019 20:00 651.46 0.00 21.8 76.0 --
01/19/2019 19:00 651.46 0.00 22.2 77.0 --
01/19/2019 18:00 651.46 0.00 23.0 68.0 --
01/19/2019 17:00 651.45 0.00 25.0 56.0 --
01/19/2019 16:00 651.46 0.00 25.2 55.0 --
01/19/2019 15:00 651.46 0.00 25.2 55.0 --
01/19/2019 14:00 651.46 0.00 24.8 52.0 --
01/19/2019 13:00 651.47 0.00 23.0 56.0 --
01/19/2019 12:00 651.46 0.00 22.5 57.0 --
01/19/2019 11:00 651.47 0.00 21.7 63.0 --
01/19/2019 10:00 651.47 0.00 20.1 67.0 --
01/19/2019 09:00 651.46 0.00 18.9 75.0 --
01/19/2019 08:00 651.47 0.00 18.3 75.0 --
01/19/2019 07:00 651.47 0.00 19.6 73.0 --
01/19/2019 06:00 651.46 0.00 21.8 70.0 --
01/19/2019 05:00 651.46 0.00 21.8 70.0 --
01/19/2019 04:00 651.47 0.00 23.3 73.0 --
01/19/2019 03:00 651.48 0.00 22.0 82.0 --
01/19/2019 02:00 651.48 0.00 22.0 82.0 --
01/19/2019 01:00 651.48 0.00 24.0 76.0 --
01/19/2019 00:00 651.48 0.00 26.6 70.0 --
01/18/2019 23:00 651.48 0.00 30.3 55.0 --
01/18/2019 22:00 651.47 0.00 27.0 90.0 --
01/18/2019 21:00 651.48 0.00 27.0 86.0 --
01/18/2019 20:00 651.48 0.00 29.7 80.0 --
01/18/2019 19:00 651.47 0.00 31.7 77.0 --
01/18/2019 18:00 651.48 0.00 30.9 80.0 --
01/18/2019 17:00 651.49 0.00 31.6 74.0 --
01/18/2019 16:00 651.49 0.00 31.6 74.0 --
01/18/2019 15:00 651.48 0.00 31.2 70.0 --
01/18/2019 14:00 651.48 0.00 27.3 66.0 --
01/18/2019 13:00 651.48 0.00 24.9 65.0 --
01/18/2019 12:00 651.49 0.00 21.4 67.0 --
01/18/2019 11:00 651.49 0.00 19.3 68.0 --
01/18/2019 10:00 651.49 0.00 18.0 71.0 --
01/18/2019 09:00 651.49 0.00 17.2 70.0 --
01/18/2019 08:00 651.49 0.00 16.5 69.0 --
01/18/2019 07:00 651.50 0.00 16.3 70.0 --
01/18/2019 06:00 651.50 0.00 15.8 67.0 --
01/18/2019 05:00 651.50 0.00 16.8 64.0 --
01/18/2019 04:00 651.50 0.00 16.3 60.0 --
01/18/2019 03:00 651.50 0.00 15.9 57.0 --
01/18/2019 02:00 651.50 0.00 16.1 56.0 --
01/18/2019 01:00 651.50 0.00 16.2 55.0 --
01/18/2019 00:00 651.50 0.00 16.3 59.0 --
01/17/2019 23:00 651.51 0.00 16.4 66.0 --
01/17/2019 22:00 651.50 0.00 16.1 62.0 --
01/17/2019 21:00 651.51 0.00 16.1 61.0 --
01/17/2019 20:00 651.51 0.00 16.6 57.0 --
01/17/2019 19:00 651.50 0.00 16.7 53.0 --
01/17/2019 18:00 651.50 0.00 19.2 40.0 --
01/17/2019 17:00 651.49 0.00 21.7 29.0 --
01/17/2019 16:00 651.51 0.00 22.8 23.0 --
01/17/2019 15:00 651.51 0.00 23.1 28.0 --
01/17/2019 14:00 651.52 0.00 19.6 30.0 --
01/17/2019 13:00 651.52 0.00 17.1 34.0 --
01/17/2019 12:00 651.53 0.00 14.4 40.0 --
01/17/2019 11:00 651.53 0.00 10.5 52.0 --
01/17/2019 10:00 651.53 0.00 8.5 59.0 --
01/17/2019 09:00 651.53 0.00 4.7 76.0 --
01/17/2019 08:00 651.52 0.00 5.0 76.0 --
01/17/2019 07:00 651.53 0.00 6.9 73.0 --
01/17/2019 06:00 651.53 0.00 8.8 62.0 --
01/17/2019 05:00 651.53 0.00 11.5 53.0 --
01/17/2019 04:00 651.53 0.00 12.8 53.0 --
01/17/2019 03:00 651.53 0.00 14.3 53.0 --
01/17/2019 02:00 651.54 0.00 16.9 50.0 --
01/17/2019 01:00 651.53 0.00 20.5 53.0 --
01/17/2019 00:00 651.53 0.00 20.5 53.0 --
01/16/2019 23:00 651.55 0.00 24.5 50.0 --
01/16/2019 22:00 651.55 0.00 30.7 51.0 --
01/16/2019 21:00 651.53 0.00 32.2 56.0 --
01/16/2019 20:00 651.54 0.00 32.1 65.0 --
01/16/2019 19:00 651.53 0.00 33.0 61.0 --
01/16/2019 18:00 651.53 0.00 33.2 59.0 --
01/16/2019 17:00 651.54 0.00 34.4 55.0 --
01/16/2019 16:00 651.55 0.00 34.6 54.0 --
01/16/2019 15:00 651.55 0.00 33.2 59.0 --
01/16/2019 14:00 651.54 0.00 31.3 65.0 --
01/16/2019 13:00 651.56 0.00 29.8 66.0 --
01/16/2019 12:00 651.55 0.00 29.2 67.0 --
01/16/2019 11:00 651.55 0.00 27.3 72.0 --
01/16/2019 10:00 651.55 0.00 24.3 82.0 --
01/16/2019 09:00 651.55 0.00 18.2 97.0 --
01/16/2019 08:00 651.55 0.00 17.8 96.0 --
01/16/2019 07:00 651.55 0.00 18.7 95.0 --
01/16/2019 06:00 651.56 0.00 16.5 96.0 --
01/16/2019 05:00 651.55 0.00 15.3 97.0 --
01/16/2019 04:00 651.56 0.00 16.2 97.0 --
01/16/2019 03:00 651.56 0.00 17.5 97.0 --
01/16/2019 02:00 651.55 0.00 19.2 92.0 --
01/16/2019 01:00 651.56 0.00 20.9 87.0 --
01/16/2019 00:00 651.56 0.00 20.6 88.0 --
01/15/2019 23:00 651.55 0.00 19.8 90.0 --
01/15/2019 22:00 651.56 0.00 19.5 89.0 --
01/15/2019 21:00 651.56 0.00 21.0 86.0 --
01/15/2019 20:00 651.56 0.00 22.0 83.0 --
01/15/2019 19:00 651.56 0.00 24.1 78.0 --
01/15/2019 18:00 651.56 0.00 27.0 67.0 --
01/15/2019 17:00 651.56 0.00 27.0 67.0 --
01/15/2019 16:00 651.56 0.00 28.4 63.0 --
01/15/2019 15:00 651.56 0.00 28.6 64.0 --
01/15/2019 14:00 651.57 0.00 29.4 61.0 --
01/15/2019 13:00 651.58 0.00 27.7 66.0 --
01/15/2019 12:00 651.58 0.00 26.8 69.0 --
01/15/2019 11:00 651.58 0.00 24.5 71.0 --
01/15/2019 10:00 651.58 0.00 22.0 70.0 --
01/15/2019 09:00 651.57 0.00 19.4 73.0 --
01/15/2019 08:00 651.58 0.00 18.6 63.0 --
01/15/2019 07:00 651.59 0.00 19.5 54.0 --
01/15/2019 06:00 651.59 0.00 19.5 53.0 --
01/15/2019 05:00 651.59 0.00 19.5 53.0 --
01/15/2019 04:00 651.59 0.00 20.4 50.0 --
01/15/2019 03:00 651.60 0.00 17.0 60.0 --
01/15/2019 02:00 651.60 0.00 19.3 53.0 --
01/15/2019 01:00 651.59 0.00 20.8 50.0 --
01/15/2019 00:00 651.60 0.00 22.4 41.0 --
01/14/2019 23:00 651.60 0.00 23.0 37.0 --
01/14/2019 22:00 651.60 0.00 22.5 48.0 --
01/14/2019 21:00 651.61 0.00 23.0 48.0 --
01/14/2019 20:00 651.60 0.00 23.5 50.0 --
01/14/2019 19:00 651.60 0.00 24.5 49.0 --
01/14/2019 18:00 651.61 0.00 26.0 43.0 --
01/14/2019 17:00 651.60 0.00 28.4 40.0 --
01/14/2019 16:00 651.61 0.00 28.6 42.0 --
01/14/2019 15:00 651.61 0.00 29.1 43.0 --
01/14/2019 14:00 651.61 0.00 27.7 49.0 --
01/14/2019 13:00 651.61 0.00 24.5 52.0 --
01/14/2019 12:00 651.62 0.00 18.9 66.0 --
01/14/2019 11:00 651.63 0.00 12.7 77.0 --
01/14/2019 10:00 651.63 0.00 6.8 82.0 --
01/14/2019 09:00 651.63 0.00 6.8 82.0 --
01/14/2019 08:00 651.63 0.00 3.6 85.0 --
01/14/2019 07:00 651.63 0.00 4.4 85.0 --
01/14/2019 06:00 651.64 0.00 4.1 86.0 --
01/14/2019 05:00 651.64 0.00 4.6 86.0 --
01/14/2019 04:00 651.64 0.00 5.2 86.0 --
01/14/2019 03:00 651.64 0.00 6.4 86.0 --
01/14/2019 02:00 651.65 0.00 7.0 87.0 --
01/14/2019 01:00 651.65 0.00 7.0 87.0 --
01/14/2019 00:00 651.65 0.00 7.7 88.0 --
01/13/2019 23:00 651.65 0.00 9.3 88.0 --
01/13/2019 22:00 651.66 0.00 10.8 85.0 --
01/13/2019 21:00 651.66 0.00 12.4 80.0 --
01/13/2019 20:00 651.66 0.00 14.1 77.0 --
01/13/2019 19:00 651.65 0.00 16.1 73.0 --
01/13/2019 18:00 651.63 0.00 19.3 65.0 --
01/13/2019 17:00 651.65 0.00 23.5 51.0 --
01/13/2019 16:00 651.68 0.00 23.9 45.0 --
01/13/2019 15:00 651.68 0.00 23.9 45.0 --
01/13/2019 14:00 651.68 0.00 23.2 42.0 --
01/13/2019 13:00 651.69 0.00 19.0 46.0 --
01/13/2019 12:00 651.69 0.00 15.3 52.0 --
01/13/2019 11:00 651.69 0.00 12.3 57.0 --
01/13/2019 10:00 651.69 0.00 12.3 57.0 --
01/13/2019 09:00 651.71 0.00 9.2 63.0 --
01/13/2019 08:00 651.70 0.00 5.9 75.0 --
01/13/2019 07:00 651.70 0.00 7.1 70.0 --
01/13/2019 06:00 651.71 0.00 8.5 65.0 --
01/13/2019 05:00 651.71 0.00 9.0 60.0 --
01/13/2019 04:00 651.72 0.00 9.4 61.0 --
01/13/2019 03:00 651.71 0.00 9.0 63.0 --
01/13/2019 02:00 651.73 0.00 9.1 63.0 --
01/13/2019 01:00 651.72 0.00 10.2 62.0 --
01/13/2019 00:00 651.72 0.00 10.2 62.0 --
01/12/2019 23:00 651.74 0.00 11.0 63.0 --
01/12/2019 22:00 651.73 0.00 9.6 74.0 --
01/12/2019 21:00 651.74 0.00 10.6 66.0 --
01/12/2019 20:00 651.75 0.00 12.5 59.0 --
01/12/2019 19:00 651.75 0.00 12.5 59.0 --
01/12/2019 18:00 651.74 0.00 14.6 50.0 --
01/12/2019 17:00 651.74 0.00 16.1 46.0 --
01/12/2019 16:00 651.76 0.00 17.4 44.0 --
01/12/2019 15:00 651.78 0.00 17.9 43.0 --
01/12/2019 14:00 651.77 0.00 16.5 45.0 --
01/12/2019 13:00 651.78 0.00 14.7 45.0 --
01/12/2019 12:00 651.78 0.00 12.6 46.0 --
01/12/2019 11:00 651.78 0.00 10.6 51.0 --
01/12/2019 10:00 651.78 0.00 7.4 59.0 --
01/12/2019 09:00 651.80 0.00 5.5 64.0 --
01/12/2019 08:00 651.79 0.00 5.2 66.0 --
01/12/2019 07:00 651.79 0.00 5.2 66.0 --
01/12/2019 06:00 651.79 0.00 5.5 64.0 --
01/12/2019 05:00 651.80 0.00 5.2 63.0 --
01/12/2019 04:00 651.81 0.00 5.7 59.0 --
01/12/2019 03:00 651.82 0.00 5.4 61.0 --
01/12/2019 02:00 651.82 0.00 5.7 60.0 --
01/12/2019 01:00 651.82 0.00 5.8 59.0 --
01/12/2019 00:00 651.83 0.00 6.3 58.0 --
01/11/2019 23:00 651.83 0.00 7.5 55.0 --
01/11/2019 22:00 651.85 0.00 8.3 53.0 --
01/11/2019 21:00 651.84 0.00 9.1 52.0 --
01/11/2019 20:00 651.86 0.00 10.4 49.0 --
01/11/2019 19:00 651.84 0.00 12.2 48.0 --
01/11/2019 18:00 651.84 0.00 14.0 47.0 --
01/11/2019 17:00 651.82 0.00 15.5 45.0 --
01/11/2019 16:00 651.87 0.00 17.0 45.0 --
01/11/2019 15:00 651.86 0.00 18.6 48.0 --
01/11/2019 14:00 651.87 0.00 18.2 54.0 --
01/11/2019 13:00 651.87 0.00 18.2 54.0 --
01/11/2019 12:00 651.87 0.00 17.3 56.0 --
01/11/2019 11:00 651.85 0.00 15.9 59.0 --
01/11/2019 10:00 651.90 0.00 15.0 65.0 --
01/11/2019 09:00 651.86 0.00 14.4 66.0 --
01/11/2019 08:00 651.86 0.00 14.4 66.0 --
01/11/2019 07:00 651.86 0.00 14.2 68.0 --
01/11/2019 06:00 651.87 0.00 14.7 68.0 --
01/11/2019 05:00 651.89 0.00 15.5 69.0 --
01/11/2019 04:00 651.90 0.00 17.1 68.0 --
01/11/2019 03:00 651.90 0.00 17.2 68.0 --
01/11/2019 02:00 651.92 0.00 17.4 68.0 --
01/11/2019 01:00 651.90 0.00 17.7 69.0 --
01/11/2019 00:00 651.92 0.00 17.7 71.0 --
01/10/2019 23:00 651.93 0.00 18.5 70.0 --
01/10/2019 22:00 651.93 0.00 18.5 70.0 --
01/10/2019 21:00 651.91 0.00 20.1 68.0 --
01/10/2019 20:00 651.93 0.00 22.4 69.0 --
01/10/2019 19:00 651.92 0.00 23.4 63.0 --
01/10/2019 18:00 651.92 0.00 24.3 64.0 --
01/10/2019 17:00 651.94 0.01 25.8 62.0 --
01/10/2019 16:00 651.92 0.00 27.0 59.0 --
01/10/2019 15:00 651.94 0.00 27.6 60.0 --
01/10/2019 14:00 651.94 0.00 27.5 60.0 --
01/10/2019 13:00 651.93 0.00 27.0 65.0 --
01/10/2019 12:00 651.93 0.00 27.9 66.0 --
01/10/2019 11:00 651.93 0.00 28.3 66.0 --
01/10/2019 10:00 651.92 0.00 28.2 72.0 --
01/10/2019 09:00 651.92 0.00 26.9 85.0 --
01/10/2019 08:00 651.92 0.00 28.1 72.0 --
01/10/2019 07:00 651.92 0.00 29.5 67.0 --
01/10/2019 06:00 651.92 0.00 28.9 84.0 --
01/10/2019 05:00 651.92 0.00 28.9 83.0 --
01/10/2019 04:00 651.92 0.00 30.1 74.0 --
01/10/2019 03:00 651.94 0.00 30.1 74.0 --
01/10/2019 02:00 651.91 0.00 30.0 74.0 --
01/10/2019 01:00 651.92 0.00 30.7 74.0 --
01/10/2019 00:00 651.91 0.00 31.4 77.0 --
01/09/2019 23:00 651.91 0.00 31.4 77.0 --
01/09/2019 22:00 651.92 0.00 32.2 75.0 --
01/09/2019 21:00 651.92 0.00 33.3 77.0 --
01/09/2019 20:00 651.90 0.00 34.2 83.0 --
01/09/2019 19:00 651.89 0.01 34.9 82.0 --
01/09/2019 18:00 651.89 0.04 35.5 81.0 --
01/09/2019 17:00 651.88 0.00 35.7 81.0 --
01/09/2019 16:00 651.88 0.04 35.7 81.0 --
01/09/2019 15:00 651.89 0.14 35.1 84.0 --
01/09/2019 14:00 651.88 0.04 34.2 96.0 --
01/09/2019 13:00 651.90 0.08 34.2 100.0 --
01/09/2019 12:00 651.90 0.03 34.2 100.0 --
01/09/2019 11:00 651.89 0.02 33.9 100.0 --
01/09/2019 10:00 651.89 0.01 32.2 100.0 --
01/09/2019 09:00 651.89 0.00 31.8 100.0 --
01/09/2019 08:00 651.89 0.00 31.8 100.0 --
01/09/2019 07:00 651.89 0.01 31.8 100.0 --
01/09/2019 06:00 651.89 0.09 32.0 100.0 --
01/09/2019 05:00 651.87 0.00 30.9 100.0 --
01/09/2019 04:00 651.88 0.00 30.4 100.0 --
01/09/2019 03:00 651.86 0.00 30.4 100.0 --
01/09/2019 02:00 651.87 0.00 30.4 100.0 --
01/09/2019 01:00 651.88 0.00 30.4 100.0 --
01/09/2019 00:00 651.88 0.00 30.2 100.0 --
01/08/2019 23:00 651.88 0.00 30.0 100.0 --
01/08/2019 22:00 651.89 0.00 29.1 100.0 --
01/08/2019 21:00 651.88 0.00 25.8 100.0 --
01/08/2019 20:00 651.87 0.00 26.0 100.0 --
01/08/2019 19:00 651.88 0.00 25.0 100.0 --
01/08/2019 18:00 651.88 0.00 24.9 100.0 --
01/08/2019 17:00 651.87 0.00 26.4 100.0 --
01/08/2019 16:00 651.87 0.00 25.9 100.0 --
01/08/2019 15:00 651.88 0.00 26.6 100.0 --
01/08/2019 14:00 651.89 0.00 25.9 100.0 --
01/08/2019 13:00 651.89 0.00 23.8 100.0 --
01/08/2019 12:00 651.89 0.00 23.2 100.0 --
01/08/2019 11:00 651.89 0.00 21.7 98.0 --
01/08/2019 10:00 651.89 0.00 20.8 95.0 --
01/08/2019 09:00 651.89 0.00 20.0 94.0 --
01/08/2019 08:00 651.89 0.00 19.8 89.0 --
01/08/2019 07:00 651.89 0.00 19.1 90.0 --
01/08/2019 06:00 651.91 0.00 18.6 88.0 --
01/08/2019 05:00 651.89 0.00 18.3 85.0 --
01/08/2019 04:00 651.89 0.00 18.3 85.0 --
01/08/2019 03:00 651.90 0.00 20.7 50.0 --
01/08/2019 02:00 651.90 0.00 20.3 51.0 --
01/08/2019 01:00 651.90 0.00 19.6 47.0 --
01/08/2019 00:00 651.91 0.00 19.2 47.0 --
01/07/2019 23:00 651.91 0.00 19.2 47.0 --
01/07/2019 22:00 651.90 0.00 19.2 43.0 --
01/07/2019 21:00 651.90 0.00 19.2 43.0 --
01/07/2019 20:00 651.91 0.00 19.0 48.0 --
01/07/2019 19:00 651.90 0.00 19.8 37.0 --
01/07/2019 18:00 651.90 0.00 19.8 37.0 --
01/07/2019 17:00 651.91 0.00 20.4 34.0 --
01/07/2019 16:00 651.91 0.00 22.0 28.0 --
01/07/2019 15:00 651.91 0.00 20.4 30.0 --
01/07/2019 14:00 651.91 0.00 19.1 31.0 --
01/07/2019 13:00 651.91 0.00 17.7 32.0 --
01/07/2019 12:00 651.93 0.00 15.6 36.0 --
01/07/2019 11:00 651.94 0.00 13.6 42.0 --
01/07/2019 10:00 651.94 0.00 11.6 45.0 --
01/07/2019 09:00 651.98 0.00 10.6 47.0 --
01/07/2019 08:00 651.96 0.00 11.2 46.0 --
01/07/2019 07:00 651.95 0.00 11.4 47.0 --
01/07/2019 06:00 651.96 0.00 12.0 46.0 --
01/07/2019 05:00 651.97 0.00 13.1 48.0 --
01/07/2019 04:00 651.98 0.00 13.9 53.0 --
01/07/2019 03:00 651.98 0.00 13.9 53.0 --
01/07/2019 02:00 651.99 0.00 15.3 58.0 --
01/07/2019 01:00 651.99 0.01 17.6 56.0 --
01/07/2019 00:00 652.02 0.00 17.9 51.0 --
01/06/2019 23:00 652.04 0.00 20.1 53.0 --
01/06/2019 22:00 652.03 0.00 22.2 52.0 --
01/06/2019 21:00 652.02 0.00 24.1 54.0 --
01/06/2019 20:00 652.01 0.00 24.5 55.0 --
01/06/2019 19:00 652.04 0.00 26.8 45.0 --
01/06/2019 18:00 652.01 0.00 28.7 54.0 --
01/06/2019 17:00 652.02 0.00 31.1 53.0 --
01/06/2019 16:00 652.05 0.00 35.1 57.0 --
01/06/2019 15:00 651.99 0.01 36.7 61.0 --
01/06/2019 14:00 652.03 0.00 36.4 70.0 --
01/06/2019 13:00 652.04 0.00 38.6 60.0 --
01/06/2019 12:00 652.04 0.00 36.2 72.0 --
01/06/2019 11:00 652.04 0.00 35.3 72.0 --
01/06/2019 10:00 652.03 0.00 34.8 73.0 --
01/06/2019 09:00 652.03 0.00 34.8 73.0 --
01/06/2019 08:00 652.04 0.00 32.7 80.0 --
01/06/2019 07:00 652.05 0.00 34.3 77.0 --
01/06/2019 06:00 652.05 0.00 33.4 77.0 --
01/06/2019 05:00 652.05 0.00 32.4 86.0 --
01/06/2019 04:00 652.05 0.00 32.4 86.0 --
01/06/2019 03:00 652.05 0.00 31.3 90.0 --
01/06/2019 02:00 652.06 0.00 34.4 81.0 --
01/06/2019 01:00 652.05 0.00 33.5 87.0 --
01/06/2019 00:00 652.06 0.00 31.9 100.0 --
01/05/2019 23:00 652.06 0.00 31.9 100.0 --
01/05/2019 22:00 652.06 0.00 30.8 100.0 --
01/05/2019 21:00 652.07 0.00 31.7 100.0 --
01/05/2019 20:00 652.08 0.00 31.6 100.0 --
01/05/2019 19:00 652.08 0.00 33.7 100.0 --
01/05/2019 18:00 652.08 0.00 33.7 100.0 --
01/05/2019 17:00 652.08 0.00 33.4 100.0 --
01/05/2019 16:00 652.08 0.01 34.0 100.0 --
01/05/2019 15:00 652.07 0.00 34.1 100.0 --
01/05/2019 14:00 652.09 0.00 34.9 96.0 --
01/05/2019 13:00 652.09 0.00 34.1 100.0 --
01/05/2019 12:00 652.09 0.02 33.1 100.0 --
01/05/2019 11:00 652.09 0.01 33.1 98.0 --
01/05/2019 10:00 652.10 0.00 32.2 100.0 --
01/05/2019 09:00 652.10 0.00 31.0 97.0 --
01/05/2019 08:00 652.10 0.00 31.1 91.0 --
01/05/2019 07:00 652.10 0.00 30.2 94.0 --
01/05/2019 06:00 652.11 0.00 29.2 94.0 --
01/05/2019 05:00 652.13 0.00 28.2 95.0 --
01/05/2019 04:00 652.12 0.00 28.7 94.0 --
01/05/2019 03:00 652.12 0.00 28.7 94.0 --
01/05/2019 02:00 652.12 0.00 29.7 92.0 --
01/05/2019 01:00 652.14 0.00 35.7 72.0 --
01/05/2019 00:00 652.13 0.00 34.5 74.0 --
01/04/2019 23:00 652.14 0.00 32.6 78.0 --
01/04/2019 22:00 652.15 0.00 30.4 84.0 --
01/04/2019 21:00 652.15 0.00 33.1 75.0 --
01/04/2019 20:00 652.15 0.00 30.0 84.0 --
01/04/2019 19:00 652.15 0.00 31.6 80.0 --
01/04/2019 18:00 652.15 0.00 35.9 65.0 --
01/04/2019 17:00 652.15 0.00 35.9 65.0 --
01/04/2019 16:00 652.16 0.00 39.6 55.0 --
01/04/2019 15:00 652.16 0.00 40.1 53.0 --
01/04/2019 14:00 652.17 0.00 39.1 54.0 --
01/04/2019 13:00 652.18 0.00 37.4 56.0 --
01/04/2019 12:00 652.19 0.00 36.0 60.0 --
01/04/2019 11:00 652.19 0.00 33.9 64.0 --
01/04/2019 10:00 652.19 0.00 33.9 64.0 --
01/04/2019 09:00 652.19 0.00 31.1 72.0 --
01/04/2019 08:00 652.20 0.00 30.7 74.0 --
01/04/2019 07:00 652.21 0.00 31.0 72.0 --
01/04/2019 06:00 652.22 0.00 30.7 75.0 --
01/04/2019 05:00 652.22 0.00 30.7 75.0 --
01/04/2019 04:00 652.21 0.00 30.4 76.0 --
01/04/2019 03:00 652.23 0.00 31.2 70.0 --
01/04/2019 02:00 652.24 0.00 32.0 68.0 --
01/04/2019 01:00 652.24 0.00 32.3 69.0 --
01/04/2019 00:00 652.24 0.00 32.3 69.0 --
01/03/2019 23:00 652.25 0.00 31.7 73.0 --
01/03/2019 22:00 652.25 0.00 32.3 68.0 --
01/03/2019 21:00 652.25 0.00 32.3 68.0 --
01/03/2019 20:00 652.25 0.00 33.4 60.0 --
01/03/2019 19:00 652.27 0.00 33.3 75.0 --
01/03/2019 18:00 652.28 0.00 33.9 75.0 --
01/03/2019 17:00 652.28 0.00 35.4 70.0 --
01/03/2019 16:00 652.28 0.00 35.4 70.0 --
01/03/2019 15:00 652.29 0.00 36.2 71.0 --
01/03/2019 14:00 652.30 0.01 37.2 71.0 --
01/03/2019 13:00 652.30 0.05 36.3 76.0 --
01/03/2019 12:00 652.30 0.01 29.7 88.0 --
01/03/2019 11:00 652.30 0.00 27.5 92.0 --
01/03/2019 10:00 652.31 0.00 25.2 98.0 --
01/03/2019 09:00 652.32 0.00 25.0 100.0 --
01/03/2019 08:00 652.33 0.00 24.8 97.0 --
01/03/2019 07:00 652.33 0.00 24.1 94.0 --
01/03/2019 06:00 652.34 0.00 24.1 90.0 --
01/03/2019 05:00 652.33 0.00 24.3 82.0 --
01/03/2019 04:00 652.34 0.00 25.9 61.0 --
01/03/2019 03:00 652.35 0.00 25.9 54.0 --
01/03/2019 02:00 652.34 0.00 25.4 53.0 --
01/03/2019 01:00 652.34 0.00 25.4 53.0 --
01/03/2019 00:00 652.35 0.00 24.2 66.0 --
01/02/2019 23:00 652.35 0.00 23.5 71.0 --
01/02/2019 22:00 652.36 0.00 23.0 72.0 --
01/02/2019 21:00 652.37 0.00 21.3 67.0 --
01/02/2019 20:00 652.37 0.00 21.6 63.0 --
01/02/2019 19:00 652.37 0.00 23.4 55.0 --
01/02/2019 18:00 652.37 0.00 25.5 52.0 --
01/02/2019 17:00 652.35 0.00 27.7 44.0 --
01/02/2019 16:00 652.36 0.00 29.8 35.0 --
01/02/2019 15:00 652.38 0.00 30.9 29.0 --
01/02/2019 14:00 652.37 0.00 27.9 35.0 --
01/02/2019 13:00 652.38 0.00 26.5 40.0 --
01/02/2019 12:00 652.37 0.00 24.6 48.0 --
01/02/2019 11:00 652.37 0.00 21.3 58.0 --
01/02/2019 10:00 652.37 0.00 21.3 58.0 --
01/02/2019 09:00 652.37 0.00 19.4 67.0 --
01/02/2019 08:00 652.37 0.00 19.7 67.0 --
01/02/2019 07:00 652.36 0.00 19.8 71.0 --
01/02/2019 06:00 652.36 0.00 20.1 73.0 --
01/02/2019 05:00 652.36 0.00 20.1 73.0 --
01/02/2019 04:00 652.35 0.00 21.3 71.0 --
01/02/2019 03:00 652.35 0.00 22.4 64.0 --
01/02/2019 02:00 652.34 0.00 24.1 59.0 --
01/02/2019 01:00 652.33 0.00 25.2 57.0 --
01/02/2019 00:00 652.33 0.00 25.2 57.0 --
01/01/2019 23:00 652.31 0.00 27.1 59.0 --
01/01/2019 22:00 652.31 0.00 28.7 58.0 --
01/01/2019 21:00 652.28 0.00 30.3 58.0 --
01/01/2019 20:00 652.27 0.00 33.4 60.0 --
01/01/2019 19:00 652.27 0.00 35.7 62.0 --
01/01/2019 18:00 652.25 0.00 36.6 62.0 --
01/01/2019 17:00 652.24 0.00 37.3 63.0 --
01/01/2019 16:00 652.22 0.00 38.7 61.0 --
01/01/2019 15:00 652.21 0.00 41.8 65.0 --
01/01/2019 14:00 652.19 0.00 43.8 64.0 --
01/01/2019 13:00 652.19 0.00 46.9 63.0 --
01/01/2019 12:00 652.17 0.01 47.5 70.0 --
01/01/2019 11:00 652.19 0.34 46.4 83.0 --
01/01/2019 10:00 652.18 0.01 37.9 100.0 --
01/01/2019 09:00 652.17 0.00 32.0 100.0 --
01/01/2019 08:00 652.17 0.00 32.1 100.0 --
01/01/2019 07:00 652.16 0.01 32.0 100.0 --
01/01/2019 06:00 652.15 0.02 32.1 100.0 --
01/01/2019 05:00 652.15 0.04 32.2 100.0 --
01/01/2019 04:00 652.15 0.05 32.7 100.0 --
01/01/2019 03:00 652.15 0.10 32.2 100.0 --
01/01/2019 02:00 652.14 0.11 32.7 100.0 --
01/01/2019 01:00 652.13 0.00 32.5 100.0 --
01/01/2019 00:00 652.12 0.00 32.4 100.0 --
12/31/2018 23:00 652.12 0.01 32.8 100.0 --
12/31/2018 22:00 652.12 0.01 33.6 95.4 --
12/31/2018 21:00 652.12 0.01 34.4 90.8 --
12/31/2018 20:00 652.12 0.01 35.3 86.2 --
12/31/2018 19:00 652.12 0.01 36.1 81.6 --
12/31/2018 18:00 652.12 0.00 36.9 77.0 --
12/31/2018 17:00 652.12 0.00 37.1 77.0 --
12/31/2018 16:00 652.12 0.00 37.7 73.0 --
12/31/2018 15:00 652.13 0.00 37.4 70.0 --
12/31/2018 14:00 652.14 0.00 37.2 69.0 --
12/31/2018 13:00 652.14 0.00 36.3 70.0 --
12/31/2018 12:00 652.14 0.00 34.9 71.0 --
12/31/2018 11:00 652.15 0.00 31.1 84.0 --
12/31/2018 10:00 652.15 0.00 25.8 94.0 --
12/31/2018 09:00 652.14 0.00 24.8 96.0 --
12/31/2018 08:00 652.15 0.00 24.5 95.0 --
12/31/2018 07:00 652.15 0.00 25.9 90.0 --
12/31/2018 06:00 652.17 0.00 26.9 85.0 --
12/31/2018 05:00 652.17 0.00 27.3 82.0 --
12/31/2018 04:00 652.17 0.00 27.1 79.0 --
12/31/2018 03:00 652.17 0.00 27.1 79.0 --
12/31/2018 02:00 652.17 0.00 27.6 79.0 --
12/31/2018 01:00 652.18 0.00 27.6 69.0 --
12/31/2018 00:00 652.17 0.00 27.3 67.0 --
12/30/2018 23:00 652.18 0.00 27.7 71.0 --
12/30/2018 22:00 652.18 0.00 27.7 71.0 --
12/30/2018 21:00 652.18 0.00 27.9 68.0 --
12/30/2018 20:00 652.19 0.00 27.8 61.0 --
12/30/2018 19:00 652.19 0.00 27.0 62.0 --
12/30/2018 18:00 652.19 0.00 27.7 59.0 --
12/30/2018 17:00 652.19 0.00 30.7 45.0 --
12/30/2018 16:00 652.20 0.00 32.0 46.0 --
12/30/2018 15:00 652.20 0.00 31.4 40.0 --
12/30/2018 14:00 652.20 0.00 30.4 40.0 --
12/30/2018 13:00 652.20 0.00 26.8 47.0 --
12/30/2018 12:00 652.21 0.00 24.8 50.0 --
12/30/2018 11:00 652.21 0.00 23.4 59.0 --
12/30/2018 10:00 652.20 0.00 21.1 63.0 --
12/30/2018 09:00 652.21 0.00 20.6 65.0 --
12/30/2018 08:00 652.20 0.00 20.6 63.0 --
12/30/2018 07:00 652.20 0.00 20.6 63.0 --
12/30/2018 06:00 652.20 0.00 20.3 64.0 --
12/30/2018 05:00 652.20 0.00 20.0 64.0 --
12/30/2018 04:00 652.20 0.00 20.0 64.0 --
12/30/2018 03:00 652.21 0.00 19.5 66.0 --
12/30/2018 02:00 652.19 0.00 21.2 63.0 --
12/30/2018 01:00 652.18 0.00 21.9 65.0 --
12/30/2018 00:00 652.20 0.00 23.4 64.0 --
12/29/2018 23:00 652.20 0.00 23.4 64.0 --
12/29/2018 22:00 652.17 0.00 25.3 64.0 --
12/29/2018 21:00 652.19 0.00 33.5 62.0 --
12/29/2018 20:00 652.18 0.00 34.2 60.0 --
12/29/2018 19:00 652.18 0.00 36.1 58.0 --
12/29/2018 18:00 652.18 0.00 38.3 62.0 --
12/29/2018 17:00 652.17 0.00 39.4 66.0 --
12/29/2018 16:00 652.16 0.00 40.7 65.0 --
12/29/2018 15:00 652.16 0.00 41.4 64.0 --
12/29/2018 14:00 652.15 0.00 42.4 61.0 --
12/29/2018 13:00 652.15 0.00 42.4 61.0 --
12/29/2018 12:00 652.17 0.00 43.4 59.0 --
12/29/2018 11:00 652.16 0.00 44.3 60.0 --
12/29/2018 10:00 652.17 0.00 43.5 62.0 --
12/29/2018 09:00 652.17 0.00 42.8 72.0 --
12/29/2018 08:00 652.17 0.07 42.8 72.0 --
12/29/2018 07:00 652.16 0.05 44.2 100.0 --
12/29/2018 06:00 652.14 0.00 31.3 100.0 --
12/29/2018 05:00 652.15 0.00 31.1 100.0 --
12/29/2018 04:00 652.14 0.00 31.4 100.0 --
12/29/2018 03:00 652.14 0.00 31.4 100.0 --
12/29/2018 02:00 652.15 0.00 31.7 100.0 --
12/29/2018 01:00 652.13 0.00 32.3 100.0 --
12/29/2018 00:00 652.13 0.00 32.2 100.0 --
12/28/2018 23:00 652.14 0.00 32.1 100.0 --
12/28/2018 22:00 652.14 0.00 32.0 100.0 --
12/28/2018 21:00 652.13 0.00 32.2 100.0 --
12/28/2018 20:00 652.13 0.00 32.2 100.0 --
12/28/2018 19:00 652.13 0.01 32.0 100.0 --
12/28/2018 18:00 652.13 0.01 31.9 100.0 --
12/28/2018 17:00 652.13 0.04 32.0 100.0 --
12/28/2018 16:00 652.12 0.06 32.2 100.0 --
12/28/2018 15:00 652.13 0.04 32.1 100.0 --
12/28/2018 14:00 652.12 0.05 32.1 100.0 --
12/28/2018 13:00 652.12 0.00 32.0 100.0 --
12/28/2018 12:00 652.12 0.08 32.0 100.0 --
12/28/2018 11:00 652.12 0.04 31.9 100.0 --
12/28/2018 10:00 652.12 0.01 31.3 100.0 --
12/28/2018 09:00 652.13 0.00 30.7 100.0 --
12/28/2018 08:00 652.14 0.00 28.9 98.0 --
12/28/2018 07:00 652.13 0.00 27.3 95.0 --
12/28/2018 06:00 652.14 0.00 26.0 88.0 --
12/28/2018 05:00 652.14 0.00 26.0 88.0 --
12/28/2018 04:00 652.14 0.00 26.0 77.0 --
12/28/2018 03:00 652.14 0.00 26.9 61.0 --
12/28/2018 02:00 652.14 0.00 26.4 57.0 --
12/28/2018 01:00 652.15 0.00 24.4 64.0 --
12/28/2018 00:00 652.15 0.00 24.4 64.0 --
12/27/2018 23:00 652.14 0.00 23.1 63.0 --
12/27/2018 22:00 652.16 0.00 23.2 60.0 --
12/27/2018 21:00 652.18 0.00 24.2 56.0 --
12/27/2018 20:00 652.18 0.00 25.3 50.0 --
12/27/2018 19:00 652.18 0.00 25.3 50.0 --
12/27/2018 18:00 652.19 0.00 26.2 51.0 --
12/27/2018 17:00 652.19 0.00 29.3 30.0 --
12/27/2018 16:00 652.21 0.00 29.1 31.0 --
12/27/2018 15:00 652.21 0.00 28.7 31.0 --
12/27/2018 14:00 652.21 0.00 27.6 36.0 --
12/27/2018 13:00 652.22 0.00 27.0 37.0 --
12/27/2018 12:00 652.23 0.00 24.2 46.0 --
12/27/2018 11:00 652.24 0.00 22.7 55.0 --
12/27/2018 10:00 652.24 0.00 21.1 65.0 --
12/27/2018 09:00 652.25 0.00 19.5 73.0 --
12/27/2018 08:00 652.26 0.00 20.8 67.0 --
12/27/2018 07:00 652.27 0.00 21.8 65.0 --
12/27/2018 06:00 652.27 0.00 21.8 65.0 --
12/27/2018 05:00 652.27 0.00 24.2 63.0 --
12/27/2018 04:00 652.28 0.00 28.0 73.0 --
12/27/2018 03:00 652.28 0.00 29.6 69.0 --
12/27/2018 02:00 652.29 0.00 30.8 71.0 --
12/27/2018 01:00 652.29 0.00 29.8 75.0 --
12/27/2018 00:00 652.30 0.00 27.4 78.0 --
12/26/2018 23:00 652.31 0.00 27.3 77.0 --
12/26/2018 22:00 652.32 0.00 27.4 73.0 --
12/26/2018 21:00 652.32 0.00 26.2 71.0 --
12/26/2018 20:00 652.33 0.00 27.7 64.0 --
12/26/2018 19:00 652.34 0.00 28.7 58.0 --
12/26/2018 18:00 652.34 0.00 30.1 52.0 --
12/26/2018 17:00 652.34 0.00 30.1 52.0 --
12/26/2018 16:00 652.34 0.00 31.3 44.0 --
12/26/2018 15:00 652.33 0.00 31.6 42.0 --
12/26/2018 14:00 652.35 0.00 31.3 42.0 --
12/26/2018 13:00 652.36 0.00 28.5 45.0 --
12/26/2018 12:00 652.36 0.00 27.4 46.0 --
12/26/2018 11:00 652.37 0.00 24.1 47.0 --
12/26/2018 10:00 652.38 0.00 20.9 50.0 --
12/26/2018 09:00 652.38 0.00 14.0 84.0 --
12/26/2018 08:00 652.41 0.00 13.9 83.0 --
12/26/2018 07:00 652.41 0.00 13.9 83.0 --
12/26/2018 06:00 652.41 0.00 14.3 84.0 --
12/26/2018 05:00 652.42 0.00 14.6 82.0 --
12/26/2018 04:00 652.44 0.00 15.5 76.0 --
12/26/2018 03:00 652.48 0.00 17.5 70.0 --
12/26/2018 02:00 652.49 0.00 18.7 66.0 --
12/26/2018 01:00 652.51 0.00 19.7 63.0 --
12/26/2018 00:00 652.52 0.00 20.5 59.0 --
12/25/2018 23:00 652.53 0.00 18.9 63.0 --
12/25/2018 22:00 652.54 0.00 20.7 53.0 --
12/25/2018 21:00 652.54 0.00 21.8 47.0 --
12/25/2018 20:00 652.55 0.00 24.6 35.0 --
12/25/2018 19:00 652.57 0.00 25.9 32.0 --
12/25/2018 18:00 652.58 0.00 27.2 35.0 --
12/25/2018 17:00 652.58 0.00 28.8 31.0 --
12/25/2018 16:00 652.61 0.00 30.1 30.0 --
12/25/2018 15:00 652.61 0.00 30.5 29.0 --
12/25/2018 14:00 652.61 0.00 28.9 31.0 --
12/25/2018 13:00 652.63 0.00 27.4 35.0 --
12/25/2018 12:00 652.65 0.00 26.4 41.0 --
12/25/2018 11:00 652.65 0.00 26.4 41.0 --
12/25/2018 10:00 652.65 0.00 25.2 54.0 --
12/25/2018 09:00 652.66 0.00 24.4 66.0 --
12/25/2018 08:00 652.67 0.00 23.6 69.0 --
12/25/2018 07:00 652.70 0.00 25.2 73.0 --
12/25/2018 06:00 652.70 0.00 25.2 73.0 --
12/25/2018 05:00 652.72 0.00 25.9 74.0 --
12/25/2018 04:00 652.72 0.00 27.5 69.0 --
12/25/2018 03:00 652.74 0.00 27.9 72.0 --
12/25/2018 02:00 652.76 0.00 30.9 72.0 --
12/25/2018 01:00 652.76 0.00 30.9 72.0 --
12/25/2018 00:00 652.79 0.00 32.2 76.0 --
12/24/2018 23:00 652.80 0.00 32.6 78.0 --
12/24/2018 22:00 652.81 0.00 32.7 78.0 --
12/24/2018 21:00 652.82 0.00 28.6 93.0 --
12/24/2018 20:00 652.84 0.00 28.7 92.0 --
12/24/2018 19:00 652.85 0.00 29.8 86.0 --
12/24/2018 18:00 652.85 0.00 29.8 86.0 --
12/24/2018 17:00 652.87 0.00 33.1 77.0 --
12/24/2018 16:00 652.89 0.00 34.1 77.0 --
12/24/2018 15:00 652.90 0.00 34.1 76.0 --
12/24/2018 14:00 652.91 0.00 34.6 70.0 --
12/24/2018 13:00 652.94 0.00 32.4 67.0 --
12/24/2018 12:00 652.95 0.00 31.0 69.0 --
12/24/2018 11:00 652.96 0.00 29.4 72.0 --
12/24/2018 10:00 652.96 0.00 29.4 72.0 --
12/24/2018 09:00 652.98 0.00 27.4 79.0 --
12/24/2018 08:00 653.01 0.00 26.8 79.0 --
12/24/2018 07:00 653.03 0.00 26.2 81.0 --
12/24/2018 06:00 653.05 0.00 25.8 82.0 --
12/24/2018 05:00 653.05 0.00 25.2 83.0 --
12/24/2018 04:00 653.07 0.00 24.6 84.0 --
12/24/2018 03:00 653.09 0.00 23.4 85.0 --
12/24/2018 02:00 653.11 0.00 22.5 87.0 --
12/24/2018 01:00 653.13 0.00 22.8 85.0 --
12/24/2018 00:00 653.13 0.00 22.1 85.0 --
12/23/2018 23:00 653.14 0.00 23.1 83.0 --
12/23/2018 22:00 653.16 0.00 23.1 80.0 --
12/23/2018 21:00 653.17 0.00 24.7 77.0 --
12/23/2018 20:00 653.18 0.00 25.3 73.0 --
12/23/2018 19:00 653.20 0.00 26.4 68.0 --
12/23/2018 18:00 653.20 0.00 28.9 56.0 --
12/23/2018 17:00 653.21 0.00 32.5 40.0 --
12/23/2018 16:00 653.23 0.00 33.3 36.0 --
12/23/2018 15:00 653.24 0.00 33.4 34.0 --
12/23/2018 14:00 653.24 0.00 32.3 40.0 --
12/23/2018 13:00 653.25 0.00 31.1 45.0 --
12/23/2018 12:00 653.26 0.00 29.6 51.0 --
12/23/2018 11:00 653.26 0.00 29.6 51.0 --
12/23/2018 10:00 653.25 0.00 28.5 54.0 --
12/23/2018 09:00 653.27 0.00 27.1 65.0 --
12/23/2018 08:00 653.28 0.00 27.7 63.0 --
12/23/2018 07:00 653.30 0.00 28.8 62.0 --
12/23/2018 06:00 653.30 0.00 28.8 62.0 --
12/23/2018 05:00 653.30 0.00 29.5 60.0 --
12/23/2018 04:00 653.30 0.00 30.1 61.0 --
12/23/2018 03:00 653.30 0.00 30.3 59.0 --
12/23/2018 02:00 653.29 0.00 30.8 60.0 --
12/23/2018 01:00 653.29 0.00 30.8 60.0 --
12/23/2018 00:00 653.32 0.00 31.3 59.0 --
12/22/2018 23:00 653.25 0.00 33.1 65.0 --
12/22/2018 22:00 653.23 0.00 33.4 65.0 --
12/22/2018 21:00 653.26 0.00 34.0 63.0 --
12/22/2018 20:00 653.20 0.00 33.8 63.0 --
12/22/2018 19:00 653.18 0.00 34.6 63.0 --
12/22/2018 18:00 653.16 0.00 35.5 62.0 --
12/22/2018 17:00 653.17 0.01 36.6 61.0 --
12/22/2018 16:00 653.11 0.00 37.4 66.0 --
12/22/2018 15:00 653.05 0.00 38.8 66.0 --
12/22/2018 14:00 653.00 0.00 39.0 68.0 --
12/22/2018 13:00 653.00 0.00 39.0 68.0 --
12/22/2018 12:00 652.98 0.00 40.2 69.0 --
12/22/2018 11:00 652.85 0.00 45.1 85.0 --
12/22/2018 10:00 652.85 0.01 45.1 85.0 --
12/22/2018 09:00 652.80 0.00 46.5 100.0 --
12/22/2018 08:00 652.70 0.00 41.4 100.0 --
12/22/2018 07:00 652.65 0.00 45.3 100.0 --
12/22/2018 06:00 652.60 0.00 52.2 100.0 --
12/22/2018 05:00 652.60 0.00 52.2 100.0 --
12/22/2018 04:00 652.53 0.00 52.9 100.0 --
12/22/2018 03:00 652.43 0.00 53.2 100.0 --
12/22/2018 02:00 652.37 0.04 53.1 100.0 --
12/22/2018 01:00 652.32 0.00 51.1 100.0 --
12/22/2018 00:00 652.25 0.00 54.8 100.0 --
12/21/2018 23:00 652.20 0.00 53.6 100.0 --
12/21/2018 22:00 652.20 0.01 53.6 100.0 --
12/21/2018 21:00 652.15 0.05 55.8 100.0 --
12/21/2018 20:00 652.05 0.00 51.9 100.0 --
12/21/2018 19:00 652.05 0.00 51.9 100.0 --
12/21/2018 18:00 652.00 0.02 52.0 100.0 --
12/21/2018 17:00 651.95 0.07 58.8 100.0 --
12/21/2018 16:00 651.92 0.19 57.6 100.0 --
12/21/2018 15:00 651.83 0.00 53.1 100.0 --
12/21/2018 14:00 651.83 0.14 53.1 100.0 --
12/21/2018 13:00 651.82 0.02 37.0 100.0 --
12/21/2018 12:00 651.81 0.03 36.5 100.0 --
12/21/2018 11:00 651.78 0.12 35.7 100.0 --
12/21/2018 10:00 651.75 0.15 33.3 100.0 --
12/21/2018 09:00 651.75 0.22 32.1 100.0 --
12/21/2018 08:00 651.71 0.04 31.9 100.0 --
12/21/2018 07:00 651.70 0.00 31.9 100.0 --
12/21/2018 06:00 651.71 0.00 31.9 100.0 --
12/21/2018 05:00 651.72 0.16 31.8 100.0 --
12/21/2018 04:00 651.72 0.00 31.8 100.0 --
12/21/2018 03:00 651.72 0.00 31.8 100.0 --
12/21/2018 02:00 651.72 0.00 31.8 100.0 --
12/21/2018 01:00 651.71 0.00 31.7 100.0 --
12/21/2018 00:00 651.70 0.00 31.3 95.0 --
12/20/2018 23:00 651.71 0.00 31.7 87.0 --
12/20/2018 22:00 651.71 0.00 31.4 85.0 --
12/20/2018 21:00 651.71 0.00 31.4 85.0 --
12/20/2018 20:00 651.72 0.00 31.1 83.0 --
12/20/2018 19:00 651.71 0.00 30.7 85.0 --
12/20/2018 18:00 651.72 0.00 30.9 85.0 --
12/20/2018 17:00 651.73 0.00 33.4 75.0 --
12/20/2018 16:00 651.72 0.01 36.1 63.0 --
12/20/2018 15:00 651.72 0.01 37.7 58.0 --
12/20/2018 14:00 651.72 0.02 40.0 49.0 --
12/20/2018 13:00 651.73 0.00 37.5 55.0 --
12/20/2018 12:00 651.72 0.00 32.3 67.0 --
12/20/2018 11:00 651.72 0.00 26.7 77.0 --
12/20/2018 10:00 651.73 0.00 21.5 89.0 --
12/20/2018 09:00 651.73 0.00 19.4 94.0 --
12/20/2018 08:00 651.74 0.00 19.0 95.0 --
12/20/2018 07:00 651.74 0.00 19.7 92.0 --
12/20/2018 06:00 651.75 0.00 20.5 90.0 --
12/20/2018 05:00 651.74 0.00 21.3 89.0 --
12/20/2018 04:00 651.74 0.00 22.1 87.0 --
12/20/2018 03:00 651.74 0.00 22.1 87.0 --
12/20/2018 02:00 651.74 0.00 22.9 85.0 --
12/20/2018 01:00 651.74 0.00 24.1 82.0 --
12/20/2018 00:00 651.74 0.00 25.0 80.0 --
12/19/2018 23:00 651.75 0.00 25.8 74.0 --
12/19/2018 22:00 651.76 0.00 25.7 73.0 --
12/19/2018 21:00 651.76 0.00 25.9 73.0 --
12/19/2018 20:00 651.74 0.00 26.6 72.0 --
12/19/2018 19:00 651.75 0.00 27.6 70.0 --
12/19/2018 18:00 651.76 0.00 28.5 59.0 --
12/19/2018 17:00 651.75 0.00 30.2 60.0 --
12/19/2018 16:00 651.75 0.01 33.9 44.0 --
12/19/2018 15:00 651.76 0.00 34.9 29.0 --
12/19/2018 14:00 651.76 0.00 31.6 35.0 --
12/19/2018 13:00 651.75 0.00 29.4 40.0 --
12/19/2018 12:00 651.77 0.00 25.4 47.0 --
12/19/2018 11:00 651.77 0.00 21.8 59.0 --
12/19/2018 10:00 651.77 0.00 19.2 68.0 --
12/19/2018 09:00 651.76 0.00 16.7 76.0 --
12/19/2018 08:00 651.76 0.00 17.4 69.0 --
12/19/2018 07:00 651.77 0.00 17.3 69.0 --
12/19/2018 06:00 651.78 0.00 17.7 65.0 --
12/19/2018 05:00 651.79 0.00 17.8 65.0 --
12/19/2018 04:00 651.79 0.00 18.5 64.0 --
12/19/2018 03:00 651.78 0.00 17.7 69.0 --
12/19/2018 02:00 651.79 0.00 18.4 64.0 --
12/19/2018 01:00 651.79 0.00 18.4 63.0 --
12/19/2018 00:00 651.80 0.00 18.3 64.0 --
12/18/2018 23:00 651.80 0.00 18.5 65.0 --
12/18/2018 22:00 651.82 0.00 19.5 63.0 --
12/18/2018 21:00 651.82 0.00 19.5 63.0 --
12/18/2018 20:00 651.80 0.00 20.1 62.0 --
12/18/2018 19:00 651.79 0.00 21.9 58.0 --
12/18/2018 18:00 651.79 0.00 21.9 58.0 --
12/18/2018 17:00 651.78 0.00 23.0 55.0 --
12/18/2018 16:00 651.79 0.00 25.3 51.0 --
12/18/2018 15:00 651.81 0.00 25.2 50.0 --
12/18/2018 14:00 651.79 0.00 23.7 52.0 --
12/18/2018 13:00 651.79 0.00 23.7 52.0 --
12/18/2018 12:00 651.80 0.00 21.8 53.0 --
12/18/2018 11:00 651.82 0.00 20.1 56.0 --
12/18/2018 10:00 651.81 0.00 19.8 58.0 --
12/18/2018 09:00 651.79 0.00 19.5 57.0 --
12/18/2018 08:00 651.79 0.00 19.5 57.0 --
12/18/2018 07:00 651.81 0.00 19.5 58.0 --
12/18/2018 06:00 651.83 0.00 19.4 60.0 --
12/18/2018 05:00 651.84 0.00 19.5 66.0 --
12/18/2018 04:00 651.84 0.00 21.1 57.0 --
12/18/2018 03:00 651.84 0.00 21.1 57.0 --
12/18/2018 02:00 651.84 0.00 23.8 60.0 --
12/18/2018 01:00 651.83 0.00 29.7 61.0 --
12/18/2018 00:00 651.80 0.01 33.7 64.0 --
12/17/2018 23:00 651.83 0.00 34.4 65.0 --
12/17/2018 22:00 651.82 0.00 34.9 67.0 --
12/17/2018 21:00 651.81 0.00 34.9 68.0 --
12/17/2018 20:00 651.81 0.00 34.9 68.0 --
12/17/2018 19:00 651.80 0.01 34.7 67.0 --
12/17/2018 18:00 651.82 0.01 34.8 81.0 --
12/17/2018 17:00 651.81 0.01 35.1 84.0 --
12/17/2018 16:00 651.81 0.02 36.2 81.0 --
12/17/2018 15:00 651.81 0.06 36.2 82.0 --
12/17/2018 14:00 651.82 0.05 36.6 82.0 --
12/17/2018 13:00 651.81 0.01 35.3 91.0 --
12/17/2018 12:00 651.81 0.00 33.5 97.0 --
12/17/2018 11:00 651.80 0.00 33.3 100.0 --
12/17/2018 10:00 651.81 0.00 32.3 100.0 --
12/17/2018 09:00 651.82 0.00 31.8 100.0 --
12/17/2018 08:00 651.81 0.00 31.7 100.0 --
12/17/2018 07:00 651.81 0.00 31.7 100.0 --
12/17/2018 06:00 651.81 0.00 31.6 100.0 --
12/17/2018 05:00 651.81 0.00 31.1 100.0 --
12/17/2018 04:00 651.81 0.00 31.1 100.0 --
12/17/2018 03:00 651.80 0.00 31.3 100.0 --
12/17/2018 02:00 651.81 0.00 31.3 100.0 --
12/17/2018 01:00 651.81 0.00 31.5 100.0 --
12/17/2018 00:00 651.80 0.00 31.7 100.0 --
12/16/2018 23:00 651.78 0.00 32.2 96.0 --
12/16/2018 22:00 651.78 0.00 33.1 86.0 --
12/16/2018 21:00 651.78 0.00 33.3 86.0 --
12/16/2018 20:00 651.78 0.00 33.4 87.0 --
12/16/2018 19:00 651.78 0.00 33.5 88.0 --
12/16/2018 18:00 651.78 0.00 33.5 88.0 --
12/16/2018 17:00 651.78 0.00 33.5 88.0 --
12/16/2018 16:00 651.78 0.00 33.4 83.0 --
12/16/2018 15:00 651.78 0.00 33.5 78.0 --
12/16/2018 14:00 651.78 0.00 32.9 80.0 --
12/16/2018 13:00 651.78 0.00 32.9 80.0 --
12/16/2018 12:00 651.78 0.00 31.6 83.0 --
12/16/2018 11:00 651.79 0.00 30.3 86.0 --
12/16/2018 10:00 651.78 0.00 29.3 94.0 --
12/16/2018 09:00 651.79 0.00 27.7 100.0 --
12/16/2018 08:00 651.78 0.00 25.9 100.0 --
12/16/2018 07:00 651.78 0.00 25.4 100.0 --
12/16/2018 06:00 651.79 0.00 24.8 100.0 --
12/16/2018 05:00 651.79 0.00 25.3 100.0 --
12/16/2018 04:00 651.78 0.00 26.7 100.0 --
12/16/2018 03:00 651.77 0.00 27.0 100.0 --
12/16/2018 02:00 651.77 0.00 27.9 97.0 --
12/16/2018 01:00 651.77 0.00 28.0 98.0 --
12/16/2018 00:00 651.78 0.00 28.2 96.0 --
12/15/2018 23:00 651.77 0.00 28.2 94.0 --
12/15/2018 22:00 651.77 0.00 28.2 94.0 --
12/15/2018 21:00 651.76 0.00 29.7 91.0 --
12/15/2018 20:00 651.76 0.00 32.4 86.0 --
12/15/2018 19:00 651.77 0.00 32.8 87.0 --
12/15/2018 18:00 651.78 0.00 34.7 86.0 --
12/15/2018 17:00 651.78 0.00 34.7 86.0 --
12/15/2018 16:00 651.78 0.00 38.6 76.0 --
12/15/2018 15:00 651.78 0.00 42.9 68.0 --
12/15/2018 14:00 651.77 0.00 45.9 64.0 --
12/15/2018 13:00 651.77 0.00 45.5 67.0 --
12/15/2018 12:00 651.78 0.00 45.6 73.0 --
12/15/2018 11:00 651.77 0.00 36.2 100.0 --
12/15/2018 10:00 651.77 0.00 33.4 100.0 --
12/15/2018 09:00 651.77 0.00 31.8 100.0 --
12/15/2018 08:00 651.77 0.00 31.3 100.0 --
12/15/2018 07:00 651.77 0.00 32.2 100.0 --
12/15/2018 06:00 651.77 0.00 32.2 100.0 --
12/15/2018 05:00 651.77 0.00 33.1 100.0 --
12/15/2018 04:00 651.77 0.00 33.6 100.0 --
12/15/2018 03:00 651.77 0.00 37.0 100.0 --
12/15/2018 02:00 651.77 0.00 37.0 100.0 --
12/15/2018 01:00 651.78 0.00 39.6 100.0 --
12/15/2018 00:00 651.77 0.00 35.7 94.0 --
12/14/2018 23:00 651.78 0.00 36.9 90.0 --
12/14/2018 22:00 651.78 0.00 40.7 85.0 --
12/14/2018 21:00 651.78 0.00 40.7 85.0 --
12/14/2018 20:00 651.78 0.00 39.7 81.0 --
12/14/2018 19:00 651.78 0.00 34.0 87.0 --
12/14/2018 18:00 651.79 0.00 33.7 86.0 --
12/14/2018 17:00 651.78 0.00 35.6 79.0 --
12/14/2018 16:00 651.78 0.00 35.6 79.0 --
12/14/2018 15:00 651.77 0.00 39.3 67.0 --
12/14/2018 14:00 651.78 0.00 37.7 64.0 --
12/14/2018 13:00 651.78 0.00 33.1 68.0 --
12/14/2018 12:00 651.78 0.00 30.2 69.0 --
12/14/2018 11:00 651.79 0.00 27.9 74.0 --
12/14/2018 10:00 651.79 0.00 25.9 78.0 --
12/14/2018 09:00 651.79 0.00 25.1 79.0 --
12/14/2018 08:00 651.79 0.00 24.6 78.0 --
12/14/2018 07:00 651.79 0.00 24.5 79.0 --
12/14/2018 06:00 651.79 0.00 24.5 79.0 --
12/14/2018 05:00 651.80 0.00 24.1 78.0 --
12/14/2018 04:00 651.80 0.00 23.5 77.0 --
12/14/2018 03:00 651.80 0.00 23.4 76.0 --
12/14/2018 02:00 651.80 0.00 22.8 72.0 --
12/14/2018 01:00 651.81 0.00 22.9 72.0 --
12/14/2018 00:00 651.81 0.00 23.0 71.0 --
12/13/2018 23:00 651.81 0.00 22.4 68.0 --
12/13/2018 22:00 651.82 0.00 21.6 68.0 --
12/13/2018 21:00 651.81 0.00 21.7 70.0 --
12/13/2018 20:00 651.81 0.00 21.7 70.0 --
12/13/2018 19:00 651.82 0.00 21.2 72.0 --
12/13/2018 18:00 651.82 0.00 20.5 75.0 --
12/13/2018 17:00 651.82 0.00 21.0 71.0 --
12/13/2018 16:00 651.82 0.00 21.9 62.0 --
12/13/2018 15:00 651.83 0.00 21.0 59.0 --
12/13/2018 14:00 651.83 0.00 19.8 61.0 --
12/13/2018 13:00 651.84 0.00 18.2 60.0 --
12/13/2018 12:00 651.83 0.00 16.6 64.0 --
12/13/2018 11:00 651.83 0.00 12.3 75.0 --
12/13/2018 10:00 651.84 0.00 8.4 81.0 --
12/13/2018 09:00 651.84 0.00 6.9 84.0 --
12/13/2018 08:00 651.85 0.00 6.6 85.0 --
12/13/2018 07:00 651.86 0.00 6.6 85.0 --
12/13/2018 06:00 651.86 0.00 6.3 85.0 --
12/13/2018 05:00 651.86 0.00 6.3 85.0 --
12/13/2018 04:00 651.86 0.00 6.4 85.0 --
12/13/2018 03:00 651.87 0.00 7.8 86.0 --
12/13/2018 02:00 651.87 0.00 9.5 82.0 --
12/13/2018 01:00 651.88 0.00 10.4 80.0 --
12/13/2018 00:00 651.88 0.00 10.4 80.0 --
12/12/2018 23:00 651.87 0.00 12.7 75.0 --
12/12/2018 22:00 651.87 0.00 17.3 60.0 --
12/12/2018 21:00 651.87 0.00 17.3 60.0 --
12/12/2018 20:00 651.88 0.00 19.4 51.0 --
12/12/2018 19:00 651.89 0.00 22.2 44.0 --
12/12/2018 18:00 651.89 0.00 23.4 45.0 --
12/12/2018 17:00 651.89 0.00 25.8 42.0 --
12/12/2018 16:00 651.90 0.00 27.2 38.0 --
12/12/2018 15:00 651.89 0.00 28.3 46.0 --
12/12/2018 14:00 651.89 0.00 29.0 48.0 --
12/12/2018 13:00 651.89 0.00 28.6 52.0 --
12/12/2018 12:00 651.91 0.00 27.6 60.0 --
12/12/2018 11:00 651.89 0.00 27.5 63.0 --
12/12/2018 10:00 651.91 0.00 25.9 70.0 --
12/12/2018 09:00 651.91 0.00 25.5 73.0 --
12/12/2018 08:00 651.91 0.00 26.4 71.0 --
12/12/2018 07:00 651.93 0.00 25.9 70.0 --
12/12/2018 06:00 651.93 0.00 25.9 70.0 --
12/12/2018 05:00 651.92 0.00 25.4 66.0 --
12/12/2018 04:00 651.92 0.00 21.7 78.0 --
12/12/2018 03:00 651.92 0.00 21.6 80.0 --
12/12/2018 02:00 651.93 0.00 22.7 82.0 --
12/12/2018 01:00 651.93 0.00 22.7 82.0 --
12/12/2018 00:00 651.93 0.00 22.6 83.0 --
12/11/2018 23:00 651.93 0.00 24.2 76.0 --
12/11/2018 22:00 651.93 0.00 24.4 76.0 --
12/11/2018 21:00 651.93 0.00 24.1 75.0 --
12/11/2018 20:00 651.93 0.00 23.3 73.0 --
12/11/2018 19:00 651.94 0.00 23.5 71.0 --
12/11/2018 18:00 651.94 0.00 24.3 70.0 --
12/11/2018 17:00 651.92 0.00 29.5 48.0 --
12/11/2018 16:00 651.93 0.00 30.7 45.0 --
12/11/2018 15:00 651.95 0.00 30.3 52.0 --
12/11/2018 14:00 651.96 0.00 27.6 55.0 --
12/11/2018 13:00 651.96 0.00 24.8 58.0 --
12/11/2018 12:00 651.96 0.00 22.5 65.0 --
12/11/2018 11:00 651.96 0.00 18.3 78.0 --
12/11/2018 10:00 651.97 0.00 11.8 85.0 --
12/11/2018 09:00 651.97 0.00 8.3 87.0 --
12/11/2018 08:00 651.98 0.00 8.8 88.0 --
12/11/2018 07:00 651.98 0.00 9.3 88.0 --
12/11/2018 06:00 651.98 0.00 10.0 89.0 --
12/11/2018 05:00 651.98 0.00 10.9 88.0 --
12/11/2018 04:00 651.99 0.00 11.8 86.0 --
12/11/2018 03:00 652.00 0.00 13.5 84.0 --
12/11/2018 02:00 652.00 0.00 14.9 78.0 --
12/11/2018 01:00 652.00 0.00 16.8 72.0 --
12/11/2018 00:00 652.00 0.00 16.8 72.0 --
12/10/2018 23:00 652.00 0.00 16.8 76.0 --
12/10/2018 22:00 652.00 0.00 18.2 74.0 --
12/10/2018 21:00 652.01 0.00 20.4 68.0 --
12/10/2018 20:00 652.01 0.00 22.5 69.0 --
12/10/2018 19:00 652.01 0.00 26.4 54.0 --
12/10/2018 18:00 652.02 0.00 27.6 52.0 --
12/10/2018 17:00 652.00 0.00 29.9 47.0 --
12/10/2018 16:00 652.01 0.00 30.5 45.0 --
12/10/2018 15:00 652.02 0.00 30.6 43.0 --
12/10/2018 14:00 652.03 0.00 29.7 46.0 --
12/10/2018 13:00 652.03 0.00 29.6 49.0 --
12/10/2018 12:00 652.05 0.00 29.2 51.0 --
12/10/2018 11:00 652.03 0.00 28.2 58.0 --
12/10/2018 10:00 652.04 0.00 26.6 78.0 --
12/10/2018 09:00 652.04 0.00 26.6 78.0 --
12/10/2018 08:00 652.03 0.00 24.3 87.0 --
12/10/2018 07:00 652.04 0.00 20.8 90.0 --
12/10/2018 06:00 652.04 0.00 19.0 92.0 --
12/10/2018 05:00 652.04 0.00 18.2 92.0 --
12/10/2018 04:00 652.05 0.00 18.7 90.0 --
12/10/2018 03:00 652.05 0.00 17.9 92.0 --
12/10/2018 02:00 652.06 0.00 18.6 89.0 --
12/10/2018 01:00 652.07 0.00 20.2 86.0 --
12/10/2018 00:00 652.08 0.00 20.4 88.0 --
12/09/2018 23:00 652.08 0.00 19.9 91.0 --
12/09/2018 22:00 652.08 0.00 21.3 86.0 --
12/09/2018 21:00 652.08 0.00 21.4 86.0 --
12/09/2018 20:00 652.08 0.00 23.4 80.0 --
12/09/2018 19:00 652.08 0.00 25.2 76.0 --
12/09/2018 18:00 652.08 0.00 25.2 76.0 --
12/09/2018 17:00 652.09 0.00 28.8 62.0 --
12/09/2018 16:00 652.09 0.00 30.0 60.0 --
12/09/2018 15:00 652.11 0.00 29.3 61.0 --
12/09/2018 14:00 652.10 0.00 28.4 61.0 --
12/09/2018 13:00 652.11 0.00 28.3 60.0 --
12/09/2018 12:00 652.13 0.00 25.9 64.0 --
12/09/2018 11:00 652.12 0.00 21.8 75.0 --
12/09/2018 10:00 652.13 0.00 13.1 86.0 --
12/09/2018 09:00 652.14 0.00 9.5 88.0 --
12/09/2018 08:00 652.15 0.00 9.4 89.0 --
12/09/2018 07:00 652.15 0.00 9.4 89.0 --
12/09/2018 06:00 652.15 0.00 9.8 88.0 --
12/09/2018 05:00 652.17 0.00 9.9 88.0 --
12/09/2018 04:00 652.17 0.00 8.6 87.0 --
12/09/2018 03:00 652.18 0.00 9.5 85.0 --
12/09/2018 02:00 652.19 0.00 9.8 84.0 --
12/09/2018 01:00 652.19 0.00 10.4 82.0 --
12/09/2018 00:00 652.20 0.00 11.5 78.0 --
12/08/2018 23:00 652.20 0.00 13.0 73.0 --
12/08/2018 22:00 652.21 0.00 13.6 74.0 --
12/08/2018 21:00 652.22 0.00 14.9 71.0 --
12/08/2018 20:00 652.21 0.00 14.7 69.0 --
12/08/2018 19:00 652.22 0.00 16.1 63.0 --
12/08/2018 18:00 652.22 0.00 19.1 52.0 --
12/08/2018 17:00 652.22 0.00 19.1 52.0 --
12/08/2018 16:00 652.23 0.00 22.5 37.0 --
12/08/2018 15:00 652.23 0.00 22.3 36.0 --
12/08/2018 14:00 652.23 0.00 20.7 36.0 --
12/08/2018 13:00 652.24 0.00 19.6 40.0 --
12/08/2018 12:00 652.23 0.00 18.2 44.0 --
12/08/2018 11:00 652.24 0.00 15.1 55.0 --
12/08/2018 10:00 652.26 0.00 12.3 67.0 --
12/08/2018 09:00 652.27 0.00 9.8 76.0 --
12/08/2018 08:00 652.28 0.00 9.4 77.0 --
12/08/2018 07:00 652.29 0.00 11.7 72.0 --
12/08/2018 06:00 652.29 0.00 12.4 70.0 --
12/08/2018 05:00 652.31 0.00 12.6 67.0 --
12/08/2018 04:00 652.31 0.00 12.6 67.0 --
12/08/2018 03:00 652.32 0.00 13.2 69.0 --
12/08/2018 02:00 652.34 0.00 14.7 75.0 --
12/08/2018 01:00 652.33 0.00 16.4 66.0 --
12/08/2018 00:00 652.34 0.00 17.7 67.0 --
12/07/2018 23:00 652.34 0.00 19.4 62.0 --
12/07/2018 22:00 652.36 0.00 20.6 56.0 --
12/07/2018 21:00 652.36 0.00 20.6 56.0 --
12/07/2018 20:00 652.36 0.00 22.1 55.0 --
12/07/2018 19:00 652.38 0.00 25.0 50.0 --
12/07/2018 18:00 652.38 0.00 25.0 50.0 --
12/07/2018 17:00 652.38 0.00 26.3 38.0 --
12/07/2018 16:00 652.40 0.00 29.6 34.0 --
12/07/2018 15:00 652.39 0.00 30.1 33.0 --
12/07/2018 14:00 652.40 0.00 30.3 38.0 --
12/07/2018 13:00 652.42 0.00 30.4 40.0 --
12/07/2018 12:00 652.42 0.00 29.6 43.0 --
12/07/2018 11:00 652.44 0.00 29.8 50.0 --
12/07/2018 10:00 652.44 0.00 30.1 63.0 --
12/07/2018 09:00 652.44 0.00 29.1 77.0 --
12/07/2018 08:00 652.46 0.00 29.6 76.0 --
12/07/2018 07:00 652.46 0.00 30.0 75.0 --
12/07/2018 06:00 652.46 0.00 29.5 79.0 --
12/07/2018 05:00 652.46 0.00 29.5 78.0 --
12/07/2018 04:00 652.47 0.00 29.3 75.0 --
12/07/2018 03:00 652.48 0.00 29.5 70.0 --
12/07/2018 02:00 652.49 0.00 30.1 67.0 --
12/07/2018 01:00 652.50 0.00 30.8 64.0 --
12/07/2018 00:00 652.51 0.00 28.5 71.0 --
12/06/2018 23:00 652.51 0.00 28.5 71.0 --
12/06/2018 22:00 652.51 0.00 25.4 86.0 --
12/06/2018 21:00 652.52 0.00 27.7 78.0 --
12/06/2018 20:00 652.52 0.00 27.7 78.0 --
12/06/2018 19:00 652.53 0.00 29.2 75.0 --
12/06/2018 18:00 652.54 0.00 31.0 72.0 --
12/06/2018 17:00 652.56 0.00 32.1 60.0 --
12/06/2018 16:00 652.55 0.00 32.0 62.0 --
12/06/2018 15:00 652.57 0.00 31.5 63.0 --
12/06/2018 14:00 652.59 0.00 32.6 58.0 --
12/06/2018 13:00 652.59 0.00 32.6 58.0 --
12/06/2018 12:00 652.59 0.00 32.0 59.0 --
12/06/2018 11:00 652.62 0.00 28.9 64.0 --
12/06/2018 10:00 652.62 0.00 28.9 64.0 --
12/06/2018 09:00 652.62 0.00 27.0 67.0 --
12/06/2018 08:00 652.63 0.00 23.4 83.0 --
12/06/2018 07:00 652.65 0.00 22.7 90.0 --
12/06/2018 06:00 652.65 0.00 23.7 88.0 --
12/06/2018 05:00 652.65 0.00 23.7 88.0 --
12/06/2018 04:00 652.67 0.00 26.2 81.0 --
12/06/2018 03:00 652.69 0.00 26.4 79.0 --
12/06/2018 02:00 652.69 0.00 26.4 78.0 --
12/06/2018 01:00 652.69 0.00 26.5 75.0 --
12/06/2018 00:00 652.69 0.00 26.5 75.0 --
12/05/2018 23:00 652.71 0.00 26.8 73.0 --
12/05/2018 22:00 652.73 0.00 27.1 69.0 --
12/05/2018 21:00 652.73 0.00 27.5 66.0 --
12/05/2018 20:00 652.74 0.00 27.7 63.0 --
12/05/2018 19:00 652.74 0.00 27.7 63.0 --
12/05/2018 18:00 652.75 0.00 28.3 60.0 --
12/05/2018 17:00 652.76 0.00 28.7 57.0 --
12/05/2018 16:00 652.78 0.00 29.2 53.0 --
12/05/2018 15:00 652.79 0.00 28.7 52.0 --
12/05/2018 14:00 652.79 0.00 28.7 52.0 --
12/05/2018 13:00 652.80 0.00 28.6 52.0 --
12/05/2018 12:00 652.83 0.00 26.3 54.0 --
12/05/2018 11:00 652.83 0.00 24.7 60.0 --
12/05/2018 10:00 652.84 0.00 19.3 79.0 --
12/05/2018 09:00 652.86 0.00 15.1 89.0 --
12/05/2018 08:00 652.87 0.00 15.1 89.0 --
12/05/2018 07:00 652.88 0.00 15.6 86.0 --
12/05/2018 06:00 652.89 0.00 16.9 84.0 --
12/05/2018 05:00 652.90 0.00 17.3 84.0 --
12/05/2018 04:00 652.90 0.00 17.3 84.0 --
12/05/2018 03:00 652.90 0.00 17.8 80.0 --
12/05/2018 02:00 652.92 0.00 20.2 70.0 --
12/05/2018 01:00 652.92 0.00 20.3 69.0 --
12/05/2018 00:00 652.94 0.00 20.8 67.0 --
12/04/2018 23:00 652.94 0.00 20.8 67.0 --
12/04/2018 22:00 652.93 0.00 21.6 64.0 --
12/04/2018 21:00 652.95 0.00 21.9 61.0 --
12/04/2018 20:00 652.95 0.00 22.8 59.0 --
12/04/2018 19:00 652.97 0.00 24.1 54.0 --
12/04/2018 18:00 652.97 0.00 24.1 54.0 --
12/04/2018 17:00 652.98 0.00 24.6 49.0 --
12/04/2018 16:00 652.99 0.00 27.1 45.0 --
12/04/2018 15:00 653.00 0.00 27.7 46.0 --
12/04/2018 14:00 652.97 0.00 28.0 48.0 --
12/04/2018 13:00 652.99 0.00 27.9 49.0 --
12/04/2018 12:00 652.99 0.00 27.4 52.0 --
12/04/2018 11:00 652.99 0.00 27.4 52.0 --
12/04/2018 10:00 653.00 0.00 27.7 54.0 --
12/04/2018 09:00 653.00 0.00 29.4 56.0 --
12/04/2018 08:00 652.99 0.00 30.5 61.0 --
12/04/2018 07:00 653.00 0.00 31.4 59.0 --
12/04/2018 06:00 653.00 0.00 31.5 58.0 --
12/04/2018 05:00 652.99 0.00 31.2 66.0 --
12/04/2018 04:00 652.98 0.00 31.2 65.0 --
12/04/2018 03:00 652.97 0.00 31.4 67.0 --
12/04/2018 02:00 652.97 0.00 32.2 65.0 --
12/04/2018 01:00 652.97 0.00 32.2 65.0 --
12/04/2018 00:00 652.96 0.00 33.7 66.0 --
12/03/2018 23:00 652.94 0.00 36.4 74.0 --
12/03/2018 22:00 652.94 0.00 37.2 83.0 --
12/03/2018 21:00 652.93 0.00 38.0 79.0 --
12/03/2018 20:00 652.93 0.00 38.0 79.0 --
12/03/2018 19:00 652.94 0.00 41.8 69.0 --
12/03/2018 18:00 652.92 0.00 42.5 68.0 --
12/03/2018 17:00 652.94 0.00 43.7 65.0 --
12/03/2018 16:00 652.89 0.00 45.2 62.0 --
12/03/2018 15:00 652.89 0.00 46.3 61.0 --
12/03/2018 14:00 652.89 0.01 46.4 65.0 --
12/03/2018 13:00 652.85 0.05 46.3 74.0 --
12/03/2018 12:00 652.81 0.01 43.4 100.0 --
12/03/2018 11:00 652.83 0.00 36.8 100.0 --
12/03/2018 10:00 652.80 0.00 34.0 100.0 --
12/03/2018 09:00 652.80 0.00 31.5 100.0 --
12/03/2018 08:00 652.77 0.00 32.8 100.0 --
12/03/2018 07:00 652.76 0.00 33.8 100.0 --
12/03/2018 06:00 652.73 0.00 33.0 100.0 --
12/03/2018 05:00 652.73 0.00 33.4 100.0 --
12/03/2018 04:00 652.71 0.00 33.1 100.0 --
12/03/2018 03:00 652.69 0.00 33.2 100.0 --
12/03/2018 02:00 652.66 0.00 33.3 100.0 --
12/03/2018 01:00 652.64 0.00 33.5 100.0 --
12/03/2018 00:00 652.62 0.01 33.6 100.0 --
12/02/2018 23:00 652.61 0.00 33.5 100.0 --
12/02/2018 22:00 652.61 0.00 33.5 100.0 --
12/02/2018 21:00 652.57 0.02 33.6 100.0 --
12/02/2018 20:00 652.54 0.00 33.4 100.0 --
12/02/2018 19:00 652.54 0.00 33.4 100.0 --
12/02/2018 18:00 652.49 0.02 34.4 100.0 --
12/02/2018 17:00 652.45 0.04 34.2 100.0 --
12/02/2018 16:00 652.44 0.03 34.1 100.0 --
12/02/2018 15:00 652.42 0.00 33.8 100.0 --
12/02/2018 14:00 652.42 0.05 33.8 100.0 --
12/02/2018 13:00 652.40 0.16 32.9 100.0 --
12/02/2018 12:00 652.37 0.12 32.1 100.0 --
12/02/2018 11:00 652.34 0.04 32.0 100.0 --
12/02/2018 10:00 652.33 0.14 32.1 100.0 --
12/02/2018 09:00 652.33 0.08 31.9 100.0 --
12/02/2018 08:00 652.32 0.15 31.9 100.0 --
12/02/2018 07:00 652.32 0.12 31.9 100.0 --
12/02/2018 06:00 652.29 0.00 31.7 100.0 --
12/02/2018 05:00 652.29 0.00 29.9 100.0 --
12/02/2018 04:00 652.29 0.00 29.3 96.0 --
12/02/2018 03:00 652.30 0.00 30.2 93.0 --
12/02/2018 02:00 652.30 0.00 29.7 91.0 --
12/02/2018 01:00 652.30 0.00 29.7 91.0 --
12/02/2018 00:00 652.31 0.00 29.9 91.0 --
12/01/2018 23:00 652.32 0.00 29.1 96.0 --
12/01/2018 22:00 652.32 0.00 28.7 97.0 --
12/01/2018 21:00 652.34 0.00 27.9 97.0 --
12/01/2018 20:00 652.34 0.00 28.6 94.0 --
12/01/2018 19:00 652.35 0.00 29.0 92.0 --
12/01/2018 18:00 652.35 0.00 29.7 88.0 --
12/01/2018 17:00 652.35 0.00 34.3 75.0 --
12/01/2018 16:00 652.35 0.00 36.3 68.0 --
12/01/2018 15:00 652.35 0.01 36.7 66.0 --
12/01/2018 14:00 652.37 0.00 36.3 64.0 --
12/01/2018 13:00 652.37 0.00 34.0 69.0 --
12/01/2018 12:00 652.38 0.00 33.9 71.0 --
12/01/2018 11:00 652.38 0.00 32.6 74.0 --
12/01/2018 10:00 652.38 0.00 32.6 74.0 --
12/01/2018 09:00 652.38 0.00 32.1 75.0 --
12/01/2018 08:00 652.40 0.00 32.0 77.0 --
12/01/2018 07:00 652.41 0.00 32.0 77.0 --
12/01/2018 06:00 652.42 0.00 30.6 84.0 --
12/01/2018 05:00 652.42 0.00 30.6 84.0 --
12/01/2018 04:00 652.42 0.00 31.1 82.0 --
12/01/2018 03:00 652.43 0.00 31.4 79.0 --
12/01/2018 02:00 652.43 0.00 31.2 79.0 --
12/01/2018 01:00 652.44 0.00 31.5 79.0 --
12/01/2018 00:00 652.44 0.00 31.5 79.0 --
11/30/2018 23:00 652.44 0.00 31.4 80.0 --
11/30/2018 22:00 652.46 0.00 31.7 79.0 --
11/30/2018 21:00 652.46 0.00 31.8 79.0 --
11/30/2018 20:00 652.48 0.00 31.4 83.0 --
11/30/2018 19:00 652.49 0.00 32.0 78.0 --
11/30/2018 18:00 652.49 0.00 32.2 77.0 --
11/30/2018 17:00 652.50 0.00 32.6 75.0 --
11/30/2018 16:00 652.51 0.00 32.5 75.0 --
11/30/2018 15:00 652.51 0.00 32.4 75.0 --
11/30/2018 14:00 652.52 0.00 32.7 73.0 --
11/30/2018 13:00 652.53 0.00 33.0 74.0 --
11/30/2018 12:00 652.54 0.00 33.2 74.0 --
11/30/2018 11:00 652.54 0.00 32.8 76.0 --
11/30/2018 10:00 652.54 0.00 32.4 79.0 --
11/30/2018 09:00 652.54 0.00 32.4 79.0 --
11/30/2018 08:00 652.55 0.00 30.5 92.0 --
11/30/2018 07:00 652.56 0.00 28.2 90.0 --
11/30/2018 06:00 652.58 0.00 29.2 85.0 --
11/30/2018 05:00 652.58 0.00 31.9 76.0 --
11/30/2018 04:00 652.59 0.00 32.2 75.0 --
11/30/2018 03:00 652.60 0.00 30.6 83.0 --
11/30/2018 02:00 652.62 0.00 32.6 75.0 --
11/30/2018 01:00 652.62 0.00 32.3 77.0 --
11/30/2018 00:00 652.63 0.00 32.8 75.0 --
11/29/2018 23:00 652.63 0.00 33.0 75.0 --
11/29/2018 22:00 652.63 0.00 33.4 73.0 --
11/29/2018 21:00 652.64 0.00 33.6 73.0 --
11/29/2018 20:00 652.65 0.00 34.4 72.0 --
11/29/2018 19:00 652.64 0.00 34.9 72.0 --
11/29/2018 18:00 652.65 0.01 35.8 69.0 --
11/29/2018 17:00 652.66 0.00 36.1 71.0 --
11/29/2018 16:00 652.67 0.02 36.5 70.0 --
11/29/2018 15:00 652.69 0.01 37.3 66.0 --
11/29/2018 14:00 652.69 0.02 37.7 64.0 --
11/29/2018 13:00 652.71 0.02 37.0 66.0 --
11/29/2018 12:00 652.72 0.00 37.1 65.0 --
11/29/2018 11:00 652.72 0.00 36.7 67.0 --
11/29/2018 10:00 652.73 0.00 35.9 69.0 --
11/29/2018 09:00 652.73 0.00 34.8 72.0 --
11/29/2018 08:00 652.73 0.00 34.8 72.0 --
11/29/2018 07:00 652.73 0.00 34.6 73.0 --
11/29/2018 06:00 652.75 0.00 35.4 71.0 --
11/29/2018 05:00 652.75 0.00 35.2 74.0 --
11/29/2018 04:00 652.77 0.00 35.5 71.0 --
11/29/2018 03:00 652.77 0.00 35.2 73.0 --
11/29/2018 02:00 652.77 0.00 35.5 73.0 --
11/29/2018 01:00 652.77 0.00 35.5 73.0 --
11/29/2018 00:00 652.77 0.01 35.5 73.0 --
11/28/2018 23:00 652.80 0.00 35.1 75.0 --
11/28/2018 22:00 652.79 0.00 35.0 75.0 --
11/28/2018 21:00 652.79 0.00 35.3 75.0 --
11/28/2018 20:00 652.79 0.00 35.3 75.0 --
11/28/2018 19:00 652.80 0.01 34.7 82.0 --
11/28/2018 18:00 652.81 0.00 34.8 81.0 --
11/28/2018 17:00 652.81 0.01 35.2 80.0 --
11/28/2018 16:00 652.82 0.03 36.2 75.0 --
11/28/2018 15:00 652.81 0.04 36.7 74.0 --
11/28/2018 14:00 652.83 0.02 36.4 73.0 --
11/28/2018 13:00 652.82 0.01 35.9 76.0 --
11/28/2018 12:00 652.81 0.00 34.1 84.0 --
11/28/2018 11:00 652.82 0.01 33.1 87.0 --
11/28/2018 10:00 652.82 0.00 32.7 86.0 --
11/28/2018 09:00 652.82 0.00 32.2 85.0 --
11/28/2018 08:00 652.80 0.00 32.1 84.0 --
11/28/2018 07:00 652.80 0.00 32.1 84.0 --
11/28/2018 06:00 652.81 0.00 32.4 83.0 --
11/28/2018 05:00 652.80 0.00 32.4 83.0 --
11/28/2018 04:00 652.79 0.00 32.8 82.0 --
11/28/2018 03:00 652.78 0.00 32.6 86.0 --
11/28/2018 02:00 652.77 0.01 32.8 84.0 --
11/28/2018 01:00 652.75 0.00 32.9 96.0 --
11/28/2018 00:00 652.74 0.00 33.0 93.0 --
11/27/2018 23:00 652.72 0.00 34.0 87.0 --
11/27/2018 22:00 652.72 0.00 34.0 89.0 --
11/27/2018 21:00 652.70 0.01 33.7 92.0 --
11/27/2018 20:00 652.68 0.03 34.6 89.0 --
11/27/2018 19:00 652.67 0.06 34.5 95.0 --
11/27/2018 18:00 652.65 0.00 35.1 95.0 --
11/27/2018 17:00 652.65 0.04 35.1 95.0 --
11/27/2018 16:00 652.63 0.00 35.7 93.0 --
11/27/2018 15:00 652.60 0.00 34.2 100.0 --
11/27/2018 14:00 652.59 0.00 33.1 100.0 --
11/27/2018 13:00 652.57 0.00 32.7 100.0 --
11/27/2018 12:00 652.55 0.00 32.6 100.0 --
11/27/2018 11:00 652.52 0.00 32.2 100.0 --
11/27/2018 10:00 652.49 0.00 31.9 100.0 --
11/27/2018 09:00 652.51 0.97 32.0 100.0 --
11/27/2018 08:00 659.15 0.00 32.0 100.0 --
11/27/2018 07:00 665.79 -- 103.0 100.0 --
11/27/2018 06:00 659.08 -- 24.5 100.0 --
11/27/2018 05:00 652.37 0.00 32.1 100.0 --
11/27/2018 04:00 652.37 0.00 32.1 100.0 --
11/27/2018 03:00 652.34 0.00 32.1 100.0 --
11/27/2018 02:00 652.30 0.00 32.0 100.0 --
11/27/2018 01:00 652.27 0.00 32.0 100.0 --
11/27/2018 00:00 652.22 0.00 31.9 100.0 --
11/26/2018 23:00 652.21 0.01 31.9 100.0 --
11/26/2018 22:00 652.18 0.15 33.5 100.0 --
11/26/2018 21:00 652.16 0.10 34.3 100.0 --
11/26/2018 20:00 652.15 0.12 34.2 100.0 --
11/26/2018 19:00 652.14 0.04 34.7 100.0 --
11/26/2018 18:00 652.14 0.02 34.8 100.0 --
11/26/2018 17:00 652.13 0.00 34.7 100.0 --
11/26/2018 16:00 652.13 0.02 34.7 100.0 --
11/26/2018 15:00 652.12 0.06 34.9 100.0 --
11/26/2018 14:00 652.11 0.01 35.1 100.0 --
11/26/2018 13:00 652.11 0.01 34.7 100.0 --
11/26/2018 12:00 652.11 0.00 34.2 100.0 --
11/26/2018 11:00 652.11 0.02 34.2 100.0 --
11/26/2018 10:00 652.11 0.00 33.5 100.0 --
11/26/2018 09:00 652.11 0.00 33.0 100.0 --
11/26/2018 08:00 652.10 0.00 32.9 100.0 --
11/26/2018 07:00 652.10 0.00 33.0 100.0 --
11/26/2018 06:00 652.10 0.00 33.1 100.0 --
11/26/2018 05:00 652.09 0.00 32.9 100.0 --
11/26/2018 04:00 652.09 0.00 32.8 100.0 --
11/26/2018 03:00 652.09 0.00 32.8 100.0 --
11/26/2018 02:00 652.09 0.00 32.9 100.0 --
11/26/2018 01:00 652.09 0.00 32.9 100.0 --
11/26/2018 00:00 652.09 0.00 33.0 100.0 --
11/25/2018 23:00 652.09 0.00 33.1 100.0 --
11/25/2018 22:00 652.09 0.00 33.3 100.0 --
11/25/2018 21:00 652.08 0.00 34.0 100.0 --
11/25/2018 20:00 652.08 0.00 34.0 100.0 --
11/25/2018 19:00 652.08 0.00 34.2 100.0 --
11/25/2018 18:00 652.07 0.00 35.7 100.0 --
11/25/2018 17:00 652.06 0.00 36.3 100.0 --
11/25/2018 16:00 652.07 0.02 37.5 100.0 --
11/25/2018 15:00 652.07 0.02 38.3 100.0 --
11/25/2018 14:00 652.07 0.02 36.8 100.0 --
11/25/2018 13:00 652.07 0.02 35.7 100.0 --
11/25/2018 12:00 652.07 0.00 35.0 100.0 --
11/25/2018 11:00 652.07 0.00 34.2 100.0 --
11/25/2018 10:00 652.07 0.01 33.6 100.0 --
11/25/2018 09:00 652.07 0.00 33.3 100.0 --
11/25/2018 08:00 652.07 0.03 33.3 100.0 --
11/25/2018 07:00 652.07 0.01 32.8 100.0 --
11/25/2018 06:00 652.07 0.03 32.8 100.0 --
11/25/2018 05:00 652.06 0.04 32.9 100.0 --
11/25/2018 04:00 -- -- -- -- --
11/25/2018 03:00 -- -- -- -- --
11/25/2018 02:00 -- -- -- -- --